createdAt,value
2024-05-09T00:00:36.121Z,57.45
2024-05-09T00:03:06.433Z,57.76
2024-05-09T00:05:33.462Z,57.25
2024-05-09T00:08:00.530Z,56.92
2024-05-09T00:10:36.039Z,57.01
2024-05-09T00:13:05.528Z,56.88
2024-05-09T00:15:32.447Z,56.87
2024-05-09T00:17:59.473Z,56.84
2024-05-09T00:20:35.055Z,57.13
2024-05-09T00:23:05.394Z,56.96
2024-05-09T00:25:35.470Z,57.69
2024-05-09T00:28:02.514Z,57.60
2024-05-09T00:30:34.433Z,58.11
2024-05-09T00:33:04.633Z,58.39
2024-05-09T00:35:32.404Z,58.35
2024-05-09T00:37:59.651Z,58.44
2024-05-09T00:40:35.608Z,58.53
2024-05-09T00:43:09.162Z,59.20
2024-05-09T00:45:36.144Z,58.90
2024-05-09T00:48:04.086Z,60.02
2024-05-09T00:50:36.383Z,60.02
2024-05-09T00:53:05.137Z,59.71
2024-05-09T00:55:32.077Z,60.40
2024-05-09T00:57:58.963Z,60.95
2024-05-09T01:00:35.951Z,61.34
2024-05-09T01:03:06.860Z,62.04
2024-05-09T01:05:34.098Z,61.58
2024-05-09T01:08:01.158Z,62.63
2024-05-09T01:10:33.869Z,63.04
2024-05-09T01:13:02.897Z,62.32
2024-05-09T01:15:32.638Z,62.92
2024-05-09T01:17:59.746Z,63.05
2024-05-09T01:20:37.148Z,62.27
2024-05-09T01:23:11.978Z,61.63
2024-05-09T01:25:39.368Z,62.42
2024-05-09T01:28:06.567Z,62.51
2024-05-09T01:30:35.955Z,63.17
2024-05-09T01:33:05.699Z,62.94
2024-05-09T01:35:33.984Z,62.31
2024-05-09T01:38:01.014Z,61.51
2024-05-09T01:40:37.233Z,62.46
2024-05-09T01:43:06.978Z,62.37
2024-05-09T01:45:33.972Z,62.26
2024-05-09T01:48:01.457Z,61.88
2024-05-09T01:50:37.957Z,61.37
2024-05-09T01:53:08.336Z,61.00
2024-05-09T01:55:37.896Z,60.23
2024-05-09T01:58:04.929Z,60.61
2024-05-09T02:00:38.809Z,60.29
2024-05-09T02:03:09.258Z,60.78
2024-05-09T02:05:36.571Z,60.40
2024-05-09T02:08:04.109Z,60.42
2024-05-09T02:10:32.980Z,60.21
2024-05-09T02:13:03.140Z,60.59
2024-05-09T02:15:30.022Z,60.24
2024-05-09T02:17:57.044Z,59.65
2024-05-09T02:20:33.085Z,59.18
2024-05-09T02:23:03.139Z,59.16
2024-05-09T02:25:30.057Z,58.79
2024-05-09T02:27:56.994Z,58.57
2024-05-09T02:30:36.180Z,58.71
2024-05-09T02:33:08.087Z,59.50
2024-05-09T02:35:35.685Z,58.83
2024-05-09T02:38:02.721Z,59.61
2024-05-09T02:40:36.549Z,59.03
2024-05-09T02:43:05.847Z,59.02
2024-05-09T02:45:35.420Z,58.94
2024-05-09T02:48:02.738Z,59.00
2024-05-09T02:50:37.024Z,59.55
2024-05-09T02:53:06.448Z,59.33
2024-05-09T02:55:33.921Z,59.17
2024-05-09T02:58:00.788Z,59.41
2024-05-09T03:00:36.637Z,59.16
2024-05-09T03:03:11.770Z,59.51
2024-05-09T03:05:41.604Z,59.16
2024-05-09T03:08:08.789Z,58.66
2024-05-09T03:10:38.103Z,59.42
2024-05-09T03:13:06.836Z,59.14
2024-05-09T03:15:33.812Z,59.39
2024-05-09T03:18:01.338Z,59.14
2024-05-09T03:20:34.698Z,59.20
2024-05-09T03:23:03.187Z,58.75
2024-05-09T03:25:30.221Z,59.00
2024-05-09T03:27:57.163Z,58.58
2024-05-09T03:30:31.156Z,58.38
2024-05-09T03:33:09.841Z,58.37
2024-05-09T03:35:39.548Z,58.28
2024-05-09T03:38:06.371Z,58.20
2024-05-09T03:40:33.312Z,57.85
2024-05-09T03:43:00.140Z,58.10
2024-05-09T03:45:26.984Z,58.06
2024-05-09T03:47:54.056Z,57.99
2024-05-09T03:50:26.432Z,57.84
2024-05-09T03:53:03.008Z,57.70
2024-05-09T03:55:29.913Z,57.84
2024-05-09T03:57:56.799Z,58.27
2024-05-09T04:00:31.174Z,58.27
2024-05-09T04:03:06.224Z,58.39
2024-05-09T04:05:38.167Z,58.46
2024-05-09T04:08:08.103Z,58.50
2024-05-09T04:10:35.575Z,59.15
2024-05-09T04:13:03.182Z,58.90
2024-05-09T04:15:30.493Z,59.07
2024-05-09T04:17:57.513Z,58.90
2024-05-09T04:20:34.275Z,59.05
2024-05-09T04:23:11.047Z,58.87
2024-05-09T04:25:38.131Z,59.22
2024-05-09T04:28:05.556Z,59.04
2024-05-09T04:30:38.138Z,58.69
2024-05-09T04:33:09.435Z,58.56
2024-05-09T04:35:38.541Z,58.67
2024-05-09T04:38:08.267Z,58.78
2024-05-09T04:40:36.962Z,58.61
2024-05-09T04:43:04.920Z,58.33
2024-05-09T04:45:31.888Z,58.60
2024-05-09T04:47:59.064Z,58.41
2024-05-09T04:50:35.252Z,58.73
2024-05-09T04:53:05.641Z,58.55
2024-05-09T04:55:38.366Z,58.83
2024-05-09T04:58:07.842Z,58.99
2024-05-09T05:00:37.302Z,58.85
2024-05-09T05:03:07.434Z,58.66
2024-05-09T05:05:37.327Z,58.77
2024-05-09T05:08:04.814Z,58.72
2024-05-09T05:10:36.083Z,59.08
2024-05-09T05:13:06.824Z,58.72
2024-05-09T05:15:33.759Z,59.24
2024-05-09T05:18:00.865Z,59.32
2024-05-09T05:20:33.256Z,58.87
2024-05-09T05:23:01.224Z,58.93
2024-05-09T05:25:28.138Z,58.60
2024-05-09T05:27:54.980Z,58.66
2024-05-09T05:30:29.115Z,59.17
2024-05-09T05:33:01.294Z,59.05
2024-05-09T05:35:28.561Z,59.32
2024-05-09T05:37:55.626Z,59.68
2024-05-09T05:40:32.002Z,59.93
2024-05-09T05:43:02.767Z,60.32
2024-05-09T05:45:32.213Z,60.18
2024-05-09T05:47:59.341Z,59.88
2024-05-09T05:50:32.570Z,60.04
2024-05-09T05:53:03.321Z,60.68
2024-05-09T05:55:30.346Z,61.50
2024-05-09T05:57:57.266Z,60.37
2024-05-09T06:00:30.071Z,61.05
2024-05-09T06:03:07.225Z,60.44
2024-05-09T06:05:34.178Z,59.74
2024-05-09T06:08:01.168Z,60.71
2024-05-09T06:10:37.247Z,61.00
2024-05-09T06:13:06.810Z,60.73
2024-05-09T06:15:33.669Z,61.02
2024-05-09T06:18:00.784Z,60.51
2024-05-09T06:20:35.949Z,61.22
2024-05-09T06:23:05.342Z,59.83
2024-05-09T06:25:32.432Z,59.95
2024-05-09T06:28:00.085Z,60.04
2024-05-09T06:30:36.533Z,59.27
2024-05-09T06:33:06.700Z,60.06
2024-05-09T06:35:36.677Z,60.45
2024-05-09T06:38:04.098Z,60.19
2024-05-09T06:40:37.292Z,60.14
2024-05-09T06:43:10.218Z,60.27
2024-05-09T06:45:37.251Z,60.38
2024-05-09T06:48:05.128Z,60.60
2024-05-09T06:50:38.269Z,60.04
2024-05-09T06:53:06.621Z,59.32
2024-05-09T06:55:33.550Z,59.58
2024-05-09T06:58:00.438Z,59.69
2024-05-09T07:00:35.243Z,59.61
2024-05-09T07:03:07.965Z,59.59
2024-05-09T07:05:37.700Z,60.03
2024-05-09T07:08:05.795Z,59.97
2024-05-09T07:10:35.496Z,59.31
2024-05-09T07:13:03.393Z,59.28
2024-05-09T07:15:30.852Z,58.78
2024-05-09T07:17:57.919Z,59.24
2024-05-09T07:20:32.478Z,59.81
2024-05-09T07:23:05.139Z,59.26
2024-05-09T07:25:32.300Z,59.67
2024-05-09T07:27:59.420Z,59.93
2024-05-09T07:30:33.121Z,58.44
2024-05-09T07:33:02.548Z,57.16
2024-05-09T07:35:30.396Z,58.74
2024-05-09T07:37:57.636Z,57.78
2024-05-09T07:40:34.842Z,58.03
2024-05-09T07:43:03.797Z,58.02
2024-05-09T07:45:47.747Z,57.21
2024-05-09T07:53:38.406Z,56.27
2024-05-09T07:56:09.992Z,56.53
2024-05-09T07:58:37.382Z,56.42
2024-05-09T08:01:04.767Z,56.08
2024-05-09T08:03:34.235Z,55.18
2024-05-09T08:06:01.293Z,54.35
2024-05-09T08:08:28.116Z,55.19
2024-05-09T08:10:55.055Z,54.47
2024-05-09T08:13:24.605Z,53.19
2024-05-09T08:15:51.637Z,54.52
2024-05-09T08:18:19.820Z,53.07
2024-05-09T08:20:48.119Z,53.01
2024-05-09T08:23:14.979Z,54.25
2024-05-09T08:25:41.819Z,51.84
2024-05-09T08:28:08.786Z,51.00
2024-05-09T08:30:38.650Z,52.20
2024-05-09T08:33:06.923Z,51.68
2024-05-09T08:35:34.864Z,51.33
2024-05-09T08:38:02.363Z,51.49
2024-05-09T08:40:34.472Z,52.03
2024-05-09T08:43:03.500Z,51.68
2024-05-09T08:45:33.378Z,50.96
2024-05-09T08:48:03.257Z,51.24
2024-05-09T08:50:37.706Z,50.95
2024-05-09T08:53:06.217Z,50.62
2024-05-09T08:55:33.017Z,50.81
2024-05-09T08:57:59.922Z,50.72
2024-05-09T09:00:35.572Z,50.01
2024-05-09T09:03:07.002Z,49.79
2024-05-09T09:05:34.261Z,50.50
2024-05-09T09:08:01.957Z,49.77
2024-05-09T09:10:31.829Z,49.64
2024-05-09T09:13:01.517Z,49.58
2024-05-09T09:15:28.618Z,49.62
2024-05-09T09:17:57.162Z,49.59
2024-05-09T09:20:34.101Z,49.57
2024-05-09T09:23:04.244Z,49.37
2024-05-09T09:25:31.533Z,49.01
2024-05-09T09:27:58.826Z,48.97
2024-05-09T09:30:35.281Z,49.89
2024-05-09T09:33:05.145Z,49.99
2024-05-09T09:35:35.349Z,52.66
2024-05-09T09:38:02.918Z,52.42
2024-05-09T09:40:35.110Z,50.27
2024-05-09T09:43:05.470Z,50.87
2024-05-09T09:45:34.813Z,50.65
2024-05-09T09:48:01.820Z,48.97
2024-05-09T09:50:34.230Z,49.30
2024-05-09T09:53:04.978Z,47.61
2024-05-09T09:55:32.388Z,49.21
2024-05-09T09:57:59.247Z,48.55
2024-05-09T10:00:30.706Z,48.48
2024-05-09T10:03:00.133Z,49.41
2024-05-09T10:05:27.457Z,50.38
2024-05-09T10:07:54.589Z,49.94
2024-05-09T10:10:31.856Z,50.06
2024-05-09T10:13:00.096Z,47.91
2024-05-09T10:15:27.120Z,47.62
2024-05-09T10:17:54.155Z,52.17
2024-05-09T10:20:25.027Z,50.04
2024-05-09T10:22:55.065Z,49.07
2024-05-09T10:25:22.184Z,49.31
2024-05-09T10:27:57.093Z,49.64
2024-05-09T10:30:29.916Z,49.45
2024-05-09T10:33:02.774Z,48.48
2024-05-09T10:35:31.193Z,49.48
2024-05-09T10:38:00.875Z,48.88
2024-05-09T10:40:31.373Z,48.86
2024-05-09T10:43:04.657Z,49.29
2024-05-09T10:45:35.201Z,49.78
2024-05-09T10:48:02.447Z,51.94
2024-05-09T10:50:34.051Z,49.03
2024-05-09T10:53:02.506Z,50.01
2024-05-09T10:55:29.338Z,48.48
2024-05-09T10:57:56.310Z,47.90
2024-05-09T11:00:33.788Z,46.96
2024-05-09T11:03:03.164Z,47.10
2024-05-09T11:05:30.146Z,47.76
2024-05-09T11:07:57.034Z,47.84
2024-05-09T11:10:27.920Z,47.03
2024-05-09T11:13:00.848Z,46.92
2024-05-09T11:15:37.707Z,47.43
2024-05-09T11:18:05.335Z,49.18
2024-05-09T11:20:35.510Z,48.05
2024-05-09T11:23:04.671Z,47.08
2024-05-09T11:25:31.477Z,46.41
2024-05-09T11:27:58.813Z,46.29
2024-05-09T11:30:31.580Z,46.21
2024-05-09T11:33:02.456Z,45.94
2024-05-09T11:35:29.340Z,45.29
2024-05-09T11:37:56.173Z,46.06
2024-05-09T11:40:26.005Z,45.62
2024-05-09T11:42:59.183Z,45.89
2024-05-09T11:45:26.042Z,46.95
2024-05-09T11:47:53.263Z,46.59
2024-05-09T11:50:29.671Z,46.73
2024-05-09T11:52:59.831Z,47.07
2024-05-09T11:55:28.245Z,46.03
2024-05-09T11:57:55.827Z,45.78
2024-05-09T12:00:29.778Z,45.97
2024-05-09T12:03:03.579Z,45.51
2024-05-09T12:05:34.121Z,46.48
2024-05-09T12:08:01.460Z,46.20
2024-05-09T12:10:33.355Z,46.55
2024-05-09T12:13:03.161Z,45.66
2024-05-09T12:15:31.113Z,46.09
2024-05-09T12:18:00.221Z,46.97
2024-05-09T12:20:36.938Z,47.07
2024-05-09T12:23:06.411Z,47.01
2024-05-09T12:25:33.358Z,46.99
2024-05-09T12:28:00.718Z,47.13
2024-05-09T12:30:36.135Z,46.76
2024-05-09T12:33:07.216Z,45.98
2024-05-09T12:35:36.861Z,46.10
2024-05-09T12:38:03.967Z,46.16
2024-05-09T12:40:36.613Z,45.52
2024-05-09T12:43:07.624Z,45.42
2024-05-09T12:45:35.240Z,45.14
2024-05-09T12:48:02.247Z,45.91
2024-05-09T12:50:32.709Z,44.01
2024-05-09T12:53:04.758Z,44.89
2024-05-09T12:55:40.278Z,43.62
2024-05-09T12:58:15.146Z,44.96
2024-05-09T13:00:42.215Z,46.15
2024-05-09T13:03:09.368Z,44.95
2024-05-09T13:05:36.459Z,44.33
2024-05-09T13:08:07.013Z,44.94
2024-05-09T13:10:33.974Z,44.87
2024-05-09T13:13:01.789Z,44.94
2024-05-09T13:15:29.299Z,42.97
2024-05-09T13:17:59.447Z,43.23
2024-05-09T13:20:33.122Z,42.27
2024-05-09T13:23:02.458Z,42.98
2024-05-09T13:25:31.979Z,42.54
2024-05-09T13:27:59.012Z,40.91
2024-05-09T13:30:33.767Z,40.83
2024-05-09T13:33:06.844Z,41.76
2024-05-09T13:35:34.201Z,42.26
2024-05-09T13:38:01.230Z,40.78
2024-05-09T13:40:33.461Z,40.65
2024-05-09T13:43:05.560Z,40.83
2024-05-09T13:45:32.725Z,41.03
2024-05-09T13:47:59.989Z,41.50
2024-05-09T13:50:33.932Z,40.04
2024-05-09T13:53:03.213Z,40.08
2024-05-09T13:55:30.093Z,39.49
2024-05-09T13:57:57.017Z,40.32
2024-05-09T14:00:40.675Z,39.81
2024-05-09T14:03:12.350Z,39.71
2024-05-09T14:05:39.417Z,40.34
2024-05-09T14:08:06.874Z,40.82
2024-05-09T14:10:33.747Z,40.48
2024-05-09T14:13:01.277Z,39.62
2024-05-09T14:15:31.035Z,40.44
2024-05-09T14:17:57.923Z,39.87
2024-05-09T14:20:31.000Z,40.31
2024-05-09T14:22:59.262Z,40.95
2024-05-09T14:25:27.121Z,40.17
2024-05-09T14:27:54.150Z,40.84
2024-05-09T14:30:30.311Z,41.24
2024-05-09T14:33:06.762Z,40.06
2024-05-09T14:35:34.567Z,39.82
2024-05-09T14:38:01.454Z,39.77
2024-05-09T14:40:39.544Z,39.22
2024-05-09T14:43:10.303Z,38.33
2024-05-09T14:45:37.389Z,38.16
2024-05-09T14:48:08.249Z,37.82
2024-05-09T14:50:38.528Z,38.21
2024-05-09T14:53:07.930Z,37.43
2024-05-09T14:55:35.758Z,37.17
2024-05-09T14:58:03.777Z,37.65
2024-05-09T15:00:35.892Z,37.19
2024-05-09T15:03:06.794Z,35.80
2024-05-09T15:05:33.761Z,37.01
2024-05-09T15:08:00.630Z,36.07
2024-05-09T15:10:34.458Z,35.60
2024-05-09T15:13:03.487Z,35.05
2024-05-09T15:15:30.615Z,34.77
2024-05-09T15:17:57.640Z,34.40
2024-05-09T15:20:33.973Z,35.39
2024-05-09T15:23:04.111Z,34.94
2024-05-09T15:25:31.087Z,35.57
2024-05-09T15:27:58.160Z,35.32
2024-05-09T15:30:30.316Z,34.31
2024-05-09T15:32:59.970Z,33.75
2024-05-09T15:35:29.613Z,33.67
2024-05-09T15:37:56.443Z,34.31
2024-05-09T15:40:31.748Z,33.75
2024-05-09T15:43:05.784Z,32.58
2024-05-09T15:45:32.942Z,34.15
2024-05-09T15:48:00.128Z,34.24
2024-05-09T15:50:36.943Z,33.91
2024-05-09T15:53:07.883Z,32.94
2024-05-09T15:55:35.774Z,33.32
2024-05-09T15:58:03.429Z,33.08
2024-05-09T16:00:37.557Z,32.73
2024-05-09T16:03:08.055Z,32.18
2024-05-09T16:05:38.073Z,31.34
2024-05-09T16:08:05.978Z,30.33
2024-05-09T16:10:34.461Z,29.27
2024-05-09T16:13:02.666Z,30.43
2024-05-09T16:15:30.473Z,29.40
2024-05-09T16:17:57.587Z,28.62
2024-05-09T16:22:56.805Z,29.36
2024-05-09T16:25:23.740Z,28.89
2024-05-09T16:27:50.756Z,28.91
2024-05-09T16:30:24.827Z,29.00
2024-05-09T16:32:58.683Z,28.24
2024-05-09T16:35:25.603Z,28.35
2024-05-09T16:37:52.447Z,28.56
2024-05-09T16:40:29.941Z,28.28
2024-05-09T16:43:04.657Z,28.18
2024-05-09T16:45:31.957Z,29.71
2024-05-09T16:47:59.295Z,29.42
2024-05-09T16:50:31.554Z,29.57
2024-05-09T16:53:00.570Z,29.78
2024-05-09T16:55:30.081Z,31.42
2024-05-09T16:57:57.286Z,31.00
2024-05-09T17:00:35.261Z,30.86
2024-05-09T17:03:08.426Z,31.32
2024-05-09T17:05:36.126Z,30.90
2024-05-09T17:08:03.673Z,31.08
2024-05-09T17:10:35.036Z,32.18
2024-05-09T17:13:03.034Z,32.31
2024-05-09T17:15:30.629Z,32.51
2024-05-09T17:17:57.547Z,32.42
2024-05-09T17:20:31.828Z,32.52
2024-05-09T17:23:02.008Z,31.72
2024-05-09T17:25:28.853Z,31.93
2024-05-09T17:27:58.424Z,31.29
2024-05-09T17:30:32.352Z,31.74
2024-05-09T17:33:03.335Z,31.28
2024-05-09T17:35:30.827Z,31.21
2024-05-09T17:37:57.668Z,31.02
2024-05-09T17:40:31.525Z,30.38
2024-05-09T17:43:05.807Z,29.96
2024-05-09T17:45:33.420Z,30.01
2024-05-09T17:48:00.755Z,28.69
2024-05-09T17:50:34.381Z,28.25
2024-05-09T17:53:03.678Z,28.24
2024-05-09T17:55:30.624Z,28.87
2024-05-09T17:57:57.822Z,29.62
2024-05-09T18:00:36.748Z,30.92
2024-05-09T18:03:07.267Z,31.57
2024-05-09T18:05:34.884Z,32.38
2024-05-09T18:08:02.022Z,32.99
2024-05-09T18:10:35.489Z,33.38
2024-05-09T18:13:06.152Z,33.66
2024-05-09T18:15:36.328Z,34.28
2024-05-09T18:18:04.181Z,34.44
2024-05-09T18:20:40.689Z,34.61
2024-05-09T18:23:11.530Z,35.09
2024-05-09T18:25:38.354Z,34.55
2024-05-09T18:28:06.314Z,34.96
2024-05-09T18:30:37.299Z,35.46
2024-05-09T18:33:06.443Z,35.02
2024-05-09T18:35:34.849Z,35.11
2024-05-09T18:38:01.768Z,35.49
2024-05-09T18:40:34.060Z,35.73
2024-05-09T18:43:03.866Z,35.83
2024-05-09T18:45:31.025Z,36.07
2024-05-09T18:48:00.823Z,36.55
2024-05-09T18:50:34.388Z,37.23
2024-05-09T18:53:05.462Z,37.62
2024-05-09T18:55:32.335Z,37.65
2024-05-09T18:57:59.321Z,37.99
2024-05-09T19:00:33.620Z,38.25
2024-05-09T19:03:07.048Z,38.46
2024-05-09T19:05:35.034Z,39.22
2024-05-09T19:08:02.548Z,39.28
2024-05-09T19:10:34.232Z,39.64
2024-05-09T19:13:06.499Z,40.07
2024-05-09T19:15:37.417Z,40.26
2024-05-09T19:18:08.127Z,40.44
2024-05-09T19:20:36.872Z,40.62
2024-05-09T19:23:08.079Z,41.09
2024-05-09T19:25:36.069Z,40.77
2024-05-09T19:28:04.074Z,41.04
2024-05-09T19:30:38.773Z,41.62
2024-05-09T19:33:12.642Z,42.04
2024-05-09T19:35:41.111Z,42.39
2024-05-09T19:38:09.006Z,43.48
2024-05-09T19:40:36.746Z,43.65
2024-05-09T19:43:05.693Z,43.77
2024-05-09T19:45:35.018Z,43.77
2024-05-09T19:48:04.341Z,43.83
2024-05-09T19:50:41.148Z,44.53
2024-05-09T19:53:11.474Z,44.61
2024-05-09T19:55:38.937Z,44.66
2024-05-09T19:58:06.991Z,44.74
2024-05-09T20:00:36.682Z,45.16
2024-05-09T20:03:06.102Z,44.80
2024-05-09T20:05:39.273Z,45.69
2024-05-09T20:08:07.938Z,45.37
2024-05-09T20:10:36.576Z,45.74
2024-05-09T20:13:08.009Z,45.91
2024-05-09T20:15:35.806Z,46.10
2024-05-09T20:18:06.962Z,46.27
2024-05-09T20:20:41.668Z,45.94
2024-05-09T20:23:11.302Z,46.45
2024-05-09T20:25:38.744Z,45.95
2024-05-09T20:28:06.856Z,45.83
2024-05-09T20:30:34.894Z,45.86
2024-05-09T20:33:03.948Z,45.86
2024-05-09T20:35:32.144Z,45.84
2024-05-09T20:38:03.316Z,45.80
2024-05-09T20:40:35.806Z,45.90
2024-05-09T20:43:06.030Z,46.04
2024-05-09T20:45:33.660Z,45.95
2024-05-09T20:48:01.203Z,46.42
2024-05-09T20:50:36.401Z,46.23
2024-05-09T20:53:10.183Z,46.80
2024-05-09T20:55:37.112Z,46.95
2024-05-09T20:58:04.397Z,47.08
2024-05-09T21:00:38.985Z,47.00
2024-05-09T21:03:09.849Z,47.64
2024-05-09T21:05:37.020Z,47.80
2024-05-09T21:08:04.727Z,47.94
2024-05-09T21:10:34.811Z,48.32
2024-05-09T21:13:03.202Z,48.26
2024-05-09T21:15:30.864Z,48.95
2024-05-09T21:17:57.909Z,49.09
2024-05-09T21:20:30.885Z,49.52
2024-05-09T21:22:59.325Z,49.93
2024-05-09T21:25:26.325Z,50.36
2024-05-09T21:27:56.004Z,50.81
2024-05-09T21:30:32.407Z,50.91
2024-05-09T21:33:07.828Z,50.72
2024-05-09T21:35:34.953Z,50.55
2024-05-09T21:38:01.829Z,50.29
2024-05-09T21:40:34.268Z,49.94
2024-05-09T21:43:06.632Z,49.85
2024-05-09T21:45:33.770Z,50.19
2024-05-09T21:48:02.378Z,51.08
2024-05-09T21:50:36.873Z,50.64
2024-05-09T21:53:07.702Z,50.44
2024-05-09T21:55:34.713Z,50.96
2024-05-09T21:58:02.470Z,51.36
2024-05-09T22:00:36.879Z,51.06
2024-05-09T22:03:06.332Z,50.90
2024-05-09T22:05:33.611Z,50.82
2024-05-09T22:08:00.819Z,51.06
2024-05-09T22:10:33.730Z,52.05
2024-05-09T22:13:02.964Z,51.34
2024-05-09T22:15:33.800Z,50.88
2024-05-09T22:18:00.968Z,50.80
2024-05-09T22:20:34.525Z,50.57
2024-05-09T22:23:05.340Z,51.27
2024-05-09T22:25:33.050Z,50.83
2024-05-09T22:28:01.116Z,50.59
2024-05-09T22:30:35.647Z,50.45
2024-05-09T22:33:10.146Z,50.41
2024-05-09T22:35:38.606Z,50.75
2024-05-09T22:38:05.856Z,51.13
2024-05-09T22:40:42.479Z,51.40
2024-05-09T22:43:17.006Z,51.18
2024-05-09T22:45:44.380Z,51.27
2024-05-09T22:48:15.636Z,51.11
2024-05-09T22:50:43.205Z,51.16
2024-05-09T22:53:10.029Z,51.00
2024-05-09T22:55:36.912Z,51.10
2024-05-09T22:58:04.057Z,50.89
2024-05-09T23:00:32.664Z,51.03
2024-05-09T23:03:00.328Z,50.95
2024-05-09T23:05:30.454Z,50.94
2024-05-09T23:07:57.495Z,51.07
2024-05-09T23:10:31.553Z,50.79
2024-05-09T23:13:03.020Z,50.78
2024-05-09T23:15:30.153Z,51.12
2024-05-09T23:17:57.308Z,51.88
2024-05-09T23:22:56.965Z,52.14
2024-05-09T23:25:24.033Z,52.83
2024-05-09T23:27:50.908Z,51.77
2024-05-09T23:30:28.414Z,52.85
2024-05-09T23:33:01.493Z,53.05
2024-05-09T23:35:28.463Z,52.37
2024-05-09T23:37:57.922Z,52.09
2024-05-09T23:40:36.342Z,52.61
2024-05-09T23:43:06.529Z,52.09
2024-05-09T23:45:33.559Z,51.82
2024-05-09T23:48:00.814Z,51.85
2024-05-09T23:50:34.375Z,51.85
2024-05-09T23:53:08.531Z,51.24
2024-05-09T23:55:36.482Z,51.48
2024-05-09T23:58:03.578Z,51.59
